sensor_id;sensor_type;location;lat;lon;timestamp;P1;durP1;ratioP1;P2;durP2;ratioP2
11731;SDS011;5922;53.734;10.258;2023-04-06T00:02:18;8.07;;;5.37;;
11731;SDS011;5922;53.734;10.258;2023-04-06T00:04:48;8.53;;;5.13;;
11731;SDS011;5922;53.734;10.258;2023-04-06T00:07:16;7.17;;;4.90;;
11731;SDS011;5922;53.734;10.258;2023-04-06T00:09:45;10.30;;;5.10;;
11731;SDS011;5922;53.734;10.258;2023-04-06T00:12:12;7.80;;;5.27;;
11731;SDS011;5922;53.734;10.258;2023-04-06T00:14:44;10.20;;;5.87;;
11731;SDS011;5922;53.734;10.258;2023-04-06T00:17:11;6.67;;;4.97;;
11731;SDS011;5922;53.734;10.258;2023-04-06T00:19:39;9.27;;;6.20;;
11731;SDS011;5922;53.734;10.258;2023-04-06T00:22:06;9.57;;;6.47;;
11731;SDS011;5922;53.734;10.258;2023-04-06T00:24:33;7.80;;;6.00;;
11731;SDS011;5922;53.734;10.258;2023-04-06T00:27:02;10.03;;;6.10;;
11731;SDS011;5922;53.734;10.258;2023-04-06T00:29:39;6.33;;;5.40;;
11731;SDS011;5922;53.734;10.258;2023-04-06T00:32:17;11.80;;;6.13;;
11731;SDS011;5922;53.734;10.258;2023-04-06T00:36:10;8.37;;;5.30;;
11731;SDS011;5922;53.734;10.258;2023-04-06T00:39:12;7.27;;;5.23;;
11731;SDS011;5922;53.734;10.258;2023-04-06T01:06:07;8.70;;;5.40;;
11731;SDS011;5922;53.734;10.258;2023-04-06T01:32:01;7.87;;;5.33;;
11731;SDS011;5922;53.734;10.258;2023-04-06T01:34:37;9.30;;;6.30;;
11731;SDS011;5922;53.734;10.258;2023-04-06T01:37:15;7.20;;;5.43;;
11731;SDS011;5922;53.734;10.258;2023-04-06T01:39:45;7.67;;;5.70;;
11731;SDS011;5922;53.734;10.258;2023-04-06T01:42:19;8.03;;;5.90;;
11731;SDS011;5922;53.734;10.258;2023-04-06T01:44:46;9.20;;;5.93;;
11731;SDS011;5922;53.734;10.258;2023-04-06T01:47:27;8.53;;;6.00;;
11731;SDS011;5922;53.734;10.258;2023-04-06T01:50:07;8.47;;;6.03;;
11731;SDS011;5922;53.734;10.258;2023-04-06T01:52:58;7.47;;;6.03;;
11731;SDS011;5922;53.734;10.258;2023-04-06T01:55:45;7.47;;;5.83;;
11731;SDS011;5922;53.734;10.258;2023-04-06T01:58:20;8.87;;;6.23;;
11731;SDS011;5922;53.734;10.258;2023-04-06T02:01:07;8.63;;;5.73;;
11731;SDS011;5922;53.734;10.258;2023-04-06T02:03:45;9.07;;;5.53;;
11731;SDS011;5922;53.734;10.258;2023-04-06T02:06:25;8.03;;;6.00;;
11731;SDS011;5922;53.734;10.258;2023-04-06T02:08:58;9.10;;;6.45;;
11731;SDS011;5922;53.734;10.258;2023-04-06T02:11:50;9.50;;;6.30;;
11731;SDS011;5922;53.734;10.258;2023-04-06T02:14:47;8.47;;;6.50;;
11731;SDS011;5922;53.734;10.258;2023-04-06T02:17:27;6.97;;;5.77;;
11731;SDS011;5922;53.734;10.258;2023-04-06T02:20:22;9.70;;;6.40;;
11731;SDS011;5922;53.734;10.258;2023-04-06T02:23:18;8.90;;;6.30;;
11731;SDS011;5922;53.734;10.258;2023-04-06T02:25:54;9.90;;;6.20;;
11731;SDS011;5922;53.734;10.258;2023-04-06T02:28:42;10.40;;;6.37;;
11731;SDS011;5922;53.734;10.258;2023-04-06T02:31:16;10.40;;;6.33;;
11731;SDS011;5922;53.734;10.258;2023-04-06T02:33:49;9.33;;;6.57;;
11731;SDS011;5922;53.734;10.258;2023-04-06T02:36:24;11.90;;;6.93;;
11731;SDS011;5922;53.734;10.258;2023-04-06T02:39:01;10.57;;;6.57;;
11731;SDS011;5922;53.734;10.258;2023-04-06T02:41:48;9.50;;;6.50;;
11731;SDS011;5922;53.734;10.258;2023-04-06T02:44:27;13.40;;;7.57;;
11731;SDS011;5922;53.734;10.258;2023-04-06T02:47:16;9.27;;;7.17;;
11731;SDS011;5922;53.734;10.258;2023-04-06T02:49:54;10.50;;;7.30;;
11731;SDS011;5922;53.734;10.258;2023-04-06T02:52:35;11.70;;;7.40;;
11731;SDS011;5922;53.734;10.258;2023-04-06T02:55:19;8.87;;;6.70;;
11731;SDS011;5922;53.734;10.258;2023-04-06T02:58:13;9.50;;;7.00;;
11731;SDS011;5922;53.734;10.258;2023-04-06T03:00:48;12.37;;;6.60;;
11731;SDS011;5922;53.734;10.258;2023-04-06T03:03:18;10.70;;;7.07;;
11731;SDS011;5922;53.734;10.258;2023-04-06T03:05:54;10.30;;;6.90;;
11731;SDS011;5922;53.734;10.258;2023-04-06T03:08:31;9.73;;;6.93;;
11731;SDS011;5922;53.734;10.258;2023-04-06T03:11:16;11.87;;;7.27;;
11731;SDS011;5922;53.734;10.258;2023-04-06T03:13:57;9.47;;;6.73;;
11731;SDS011;5922;53.734;10.258;2023-04-06T03:16:46;11.70;;;7.93;;
11731;SDS011;5922;53.734;10.258;2023-04-06T03:19:27;9.97;;;7.20;;
11731;SDS011;5922;53.734;10.258;2023-04-06T03:27:58;9.27;;;7.00;;
11731;SDS011;5922;53.734;10.258;2023-04-06T03:30:34;10.87;;;7.20;;
11731;SDS011;5922;53.734;10.258;2023-04-06T03:33:15;9.20;;;7.03;;
11731;SDS011;5922;53.734;10.258;2023-04-06T03:35:56;10.80;;;7.73;;
11731;SDS011;5922;53.734;10.258;2023-04-06T03:38:43;9.73;;;7.40;;
11731;SDS011;5922;53.734;10.258;2023-04-06T03:41:24;10.87;;;7.93;;
11731;SDS011;5922;53.734;10.258;2023-04-06T03:43:53;10.27;;;7.77;;
11731;SDS011;5922;53.734;10.258;2023-04-06T03:46:33;11.37;;;7.73;;
11731;SDS011;5922;53.734;10.258;2023-04-06T03:49:00;12.17;;;7.73;;
11731;SDS011;5922;53.734;10.258;2023-04-06T03:51:29;13.07;;;8.67;;
11731;SDS011;5922;53.734;10.258;2023-04-06T03:54:13;19.63;;;9.57;;
11731;SDS011;5922;53.734;10.258;2023-04-06T03:56:49;15.73;;;8.10;;
11731;SDS011;5922;53.734;10.258;2023-04-06T03:59:35;13.67;;;8.67;;
11731;SDS011;5922;53.734;10.258;2023-04-06T04:02:11;13.30;;;9.37;;
11731;SDS011;5922;53.734;10.258;2023-04-06T04:04:41;12.17;;;8.50;;
11731;SDS011;5922;53.734;10.258;2023-04-06T04:07:24;12.93;;;8.43;;
11731;SDS011;5922;53.734;10.258;2023-04-06T04:10:03;15.83;;;9.77;;
11731;SDS011;5922;53.734;10.258;2023-04-06T04:12:50;13.83;;;8.77;;
11731;SDS011;5922;53.734;10.258;2023-04-06T04:15:25;13.57;;;9.43;;
11731;SDS011;5922;53.734;10.258;2023-04-06T04:20:54;16.40;;;10.13;;
11731;SDS011;5922;53.734;10.258;2023-04-06T04:23:26;12.80;;;9.10;;
11731;SDS011;5922;53.734;10.258;2023-04-06T04:26:15;15.40;;;10.17;;
11731;SDS011;5922;53.734;10.258;2023-04-06T04:28:51;15.60;;;10.30;;
11731;SDS011;5922;53.734;10.258;2023-04-06T04:31:28;17.77;;;10.80;;
11731;SDS011;5922;53.734;10.258;2023-04-06T04:33:59;16.30;;;10.73;;
11731;SDS011;5922;53.734;10.258;2023-04-06T04:36:26;18.77;;;10.77;;
11731;SDS011;5922;53.734;10.258;2023-04-06T04:38:54;19.00;;;10.43;;
11731;SDS011;5922;53.734;10.258;2023-04-06T04:41:22;15.37;;;10.70;;
11731;SDS011;5922;53.734;10.258;2023-04-06T04:43:53;16.23;;;10.70;;
11731;SDS011;5922;53.734;10.258;2023-04-06T04:46:20;16.40;;;11.03;;
11731;SDS011;5922;53.734;10.258;2023-04-06T04:48:57;15.30;;;10.33;;
11731;SDS011;5922;53.734;10.258;2023-04-06T04:51:35;16.17;;;10.90;;
11731;SDS011;5922;53.734;10.258;2023-04-06T04:54:10;14.30;;;10.57;;
11731;SDS011;5922;53.734;10.258;2023-04-06T04:56:37;15.73;;;11.00;;
11731;SDS011;5922;53.734;10.258;2023-04-06T04:59:15;15.73;;;10.50;;
11731;SDS011;5922;53.734;10.258;2023-04-06T05:01:59;20.03;;;11.33;;
11731;SDS011;5922;53.734;10.258;2023-04-06T05:08:04;14.07;;;10.07;;
11731;SDS011;5922;53.734;10.258;2023-04-06T05:10:34;15.50;;;9.13;;
11731;SDS011;5922;53.734;10.258;2023-04-06T05:13:06;14.77;;;10.10;;
11731;SDS011;5922;53.734;10.258;2023-04-06T05:15:50;14.20;;;10.17;;
11731;SDS011;5922;53.734;10.258;2023-04-06T05:18:21;14.90;;;9.47;;
11731;SDS011;5922;53.734;10.258;2023-04-06T05:21:01;12.47;;;9.53;;
11731;SDS011;5922;53.734;10.258;2023-04-06T05:23:51;16.73;;;10.23;;
11731;SDS011;5922;53.734;10.258;2023-04-06T05:26:23;14.67;;;10.20;;
11731;SDS011;5922;53.734;10.258;2023-04-06T05:28:57;14.70;;;9.63;;
11731;SDS011;5922;53.734;10.258;2023-04-06T05:31:33;14.27;;;9.43;;
11731;SDS011;5922;53.734;10.258;2023-04-06T05:34:13;13.97;;;9.60;;
11731;SDS011;5922;53.734;10.258;2023-04-06T05:36:43;16.50;;;11.10;;
11731;SDS011;5922;53.734;10.258;2023-04-06T05:42:05;13.07;;;9.53;;
11731;SDS011;5922;53.734;10.258;2023-04-06T05:44:49;17.17;;;10.27;;
11731;SDS011;5922;53.734;10.258;2023-04-06T05:47:19;16.70;;;10.50;;
11731;SDS011;5922;53.734;10.258;2023-04-06T05:50:03;14.33;;;10.17;;
11731;SDS011;5922;53.734;10.258;2023-04-06T05:52:36;13.90;;;10.17;;
11731;SDS011;5922;53.734;10.258;2023-04-06T05:55:12;15.37;;;10.33;;
11731;SDS011;5922;53.734;10.258;2023-04-06T05:57:42;15.47;;;9.83;;
11731;SDS011;5922;53.734;10.258;2023-04-06T06:00:24;13.40;;;10.00;;
11731;SDS011;5922;53.734;10.258;2023-04-06T06:02:51;19.00;;;10.57;;
11731;SDS011;5922;53.734;10.258;2023-04-06T06:05:21;15.70;;;10.40;;
11731;SDS011;5922;53.734;10.258;2023-04-06T06:07:54;14.17;;;10.37;;
11731;SDS011;5922;53.734;10.258;2023-04-06T06:10:31;16.77;;;11.17;;
11731;SDS011;5922;53.734;10.258;2023-04-06T06:13:03;14.63;;;10.97;;
11731;SDS011;5922;53.734;10.258;2023-04-06T06:15:34;14.63;;;11.10;;
11731;SDS011;5922;53.734;10.258;2023-04-06T06:18:11;16.40;;;10.07;;
11731;SDS011;5922;53.734;10.258;2023-04-06T06:20:43;18.97;;;11.13;;
11731;SDS011;5922;53.734;10.258;2023-04-06T06:23:19;15.90;;;10.43;;
11731;SDS011;5922;53.734;10.258;2023-04-06T06:25:52;13.73;;;9.80;;
11731;SDS011;5922;53.734;10.258;2023-04-06T06:28:24;20.23;;;10.13;;
11731;SDS011;5922;53.734;10.258;2023-04-06T06:31:00;14.87;;;9.60;;
11731;SDS011;5922;53.734;10.258;2023-04-06T06:33:45;13.13;;;9.23;;
11731;SDS011;5922;53.734;10.258;2023-04-06T06:36:20;15.70;;;8.83;;
11731;SDS011;5922;53.734;10.258;2023-04-06T06:38:54;14.37;;;9.47;;
11731;SDS011;5922;53.734;10.258;2023-04-06T06:44:23;13.20;;;10.17;;
11731;SDS011;5922;53.734;10.258;2023-04-06T06:47:05;13.27;;;9.17;;
11731;SDS011;5922;53.734;10.258;2023-04-06T06:49:35;12.97;;;9.33;;
11731;SDS011;5922;53.734;10.258;2023-04-06T06:52:24;13.10;;;9.73;;
11731;SDS011;5922;53.734;10.258;2023-04-06T06:55:01;10.63;;;8.70;;
11731;SDS011;5922;53.734;10.258;2023-04-06T06:57:29;14.27;;;9.30;;
11731;SDS011;5922;53.734;10.258;2023-04-06T07:00:07;10.83;;;8.03;;
11731;SDS011;5922;53.734;10.258;2023-04-06T07:02:49;11.53;;;8.40;;
11731;SDS011;5922;53.734;10.258;2023-04-06T07:05:29;11.50;;;7.70;;
11731;SDS011;5922;53.734;10.258;2023-04-06T07:08:11;10.53;;;8.07;;
11731;SDS011;5922;53.734;10.258;2023-04-06T07:10:53;11.03;;;8.43;;
11731;SDS011;5922;53.734;10.258;2023-04-06T07:13:31;12.07;;;7.57;;
11731;SDS011;5922;53.734;10.258;2023-04-06T07:16:07;11.10;;;8.10;;
11731;SDS011;5922;53.734;10.258;2023-04-06T07:18:41;10.73;;;6.90;;
11731;SDS011;5922;53.734;10.258;2023-04-06T07:21:22;9.07;;;7.10;;
11731;SDS011;5922;53.734;10.258;2023-04-06T07:23:52;8.70;;;6.87;;
11731;SDS011;5922;53.734;10.258;2023-04-06T07:26:27;13.10;;;6.83;;
11731;SDS011;5922;53.734;10.258;2023-04-06T07:29:06;16.60;;;6.17;;
11731;SDS011;5922;53.734;10.258;2023-04-06T07:31:44;7.90;;;6.40;;
11731;SDS011;5922;53.734;10.258;2023-04-06T07:34:18;9.93;;;6.13;;
11731;SDS011;5922;53.734;10.258;2023-04-06T07:36:47;8.73;;;6.60;;
11731;SDS011;5922;53.734;10.258;2023-04-06T07:39:17;8.60;;;6.30;;
11731;SDS011;5922;53.734;10.258;2023-04-06T07:41:45;7.13;;;6.13;;
11731;SDS011;5922;53.734;10.258;2023-04-06T07:44:15;7.97;;;5.90;;
11731;SDS011;5922;53.734;10.258;2023-04-06T07:46:44;6.80;;;5.70;;
11731;SDS011;5922;53.734;10.258;2023-04-06T07:49:22;5.57;;;4.97;;
11731;SDS011;5922;53.734;10.258;2023-04-06T07:51:58;6.37;;;5.17;;
11731;SDS011;5922;53.734;10.258;2023-04-06T07:54:40;6.27;;;5.10;;
11731;SDS011;5922;53.734;10.258;2023-04-06T07:57:13;6.73;;;5.03;;
11731;SDS011;5922;53.734;10.258;2023-04-06T07:59:47;8.13;;;5.00;;
11731;SDS011;5922;53.734;10.258;2023-04-06T08:02:16;7.73;;;5.03;;
11731;SDS011;5922;53.734;10.258;2023-04-06T08:04:46;7.17;;;4.67;;
11731;SDS011;5922;53.734;10.258;2023-04-06T08:07:14;6.23;;;4.17;;
11731;SDS011;5922;53.734;10.258;2023-04-06T08:09:47;4.83;;;4.03;;
11731;SDS011;5922;53.734;10.258;2023-04-06T08:12:15;6.10;;;4.10;;
11731;SDS011;5922;53.734;10.258;2023-04-06T08:14:45;5.07;;;4.00;;
11731;SDS011;5922;53.734;10.258;2023-04-06T08:17:13;7.03;;;3.97;;
11731;SDS011;5922;53.734;10.258;2023-04-06T08:19:47;4.50;;;4.10;;
11731;SDS011;5922;53.734;10.258;2023-04-06T08:22:15;9.07;;;4.00;;
11731;SDS011;5922;53.734;10.258;2023-04-06T08:24:43;9.00;;;3.77;;
11731;SDS011;5922;53.734;10.258;2023-04-06T08:27:15;5.47;;;3.97;;
11731;SDS011;5922;53.734;10.258;2023-04-06T08:29:47;5.43;;;3.70;;
11731;SDS011;5922;53.734;10.258;2023-04-06T08:32:17;5.17;;;3.63;;
11731;SDS011;5922;53.734;10.258;2023-04-06T08:34:54;5.80;;;3.53;;
11731;SDS011;5922;53.734;10.258;2023-04-06T08:37:41;4.07;;;3.67;;
11731;SDS011;5922;53.734;10.258;2023-04-06T08:40:11;7.60;;;3.93;;
11731;SDS011;5922;53.734;10.258;2023-04-06T08:42:46;8.20;;;3.63;;
11731;SDS011;5922;53.734;10.258;2023-04-06T08:45:16;5.77;;;3.60;;
11731;SDS011;5922;53.734;10.258;2023-04-06T08:47:46;6.33;;;3.67;;
11731;SDS011;5922;53.734;10.258;2023-04-06T08:50:23;8.30;;;3.87;;
11731;SDS011;5922;53.734;10.258;2023-04-06T08:52:51;8.00;;;3.47;;
11731;SDS011;5922;53.734;10.258;2023-04-06T08:55:18;4.53;;;3.47;;
11731;SDS011;5922;53.734;10.258;2023-04-06T08:57:47;6.57;;;3.60;;
11731;SDS011;5922;53.734;10.258;2023-04-06T09:00:15;5.03;;;3.80;;
11731;SDS011;5922;53.734;10.258;2023-04-06T09:02:47;4.17;;;3.13;;
11731;SDS011;5922;53.734;10.258;2023-04-06T09:05:16;5.80;;;3.57;;
11731;SDS011;5922;53.734;10.258;2023-04-06T09:07:45;7.10;;;3.20;;
11731;SDS011;5922;53.734;10.258;2023-04-06T09:10:15;4.23;;;3.27;;
11731;SDS011;5922;53.734;10.258;2023-04-06T09:12:45;4.47;;;3.40;;
11731;SDS011;5922;53.734;10.258;2023-04-06T09:15:19;4.20;;;3.43;;
11731;SDS011;5922;53.734;10.258;2023-04-06T09:17:49;5.13;;;3.33;;
11731;SDS011;5922;53.734;10.258;2023-04-06T09:20:21;4.37;;;3.70;;
11731;SDS011;5922;53.734;10.258;2023-04-06T09:22:56;5.50;;;4.03;;
11731;SDS011;5922;53.734;10.258;2023-04-06T09:25:32;6.60;;;3.67;;
11731;SDS011;5922;53.734;10.258;2023-04-06T09:28:02;5.10;;;3.40;;
11731;SDS011;5922;53.734;10.258;2023-04-06T09:30:31;4.30;;;3.20;;
11731;SDS011;5922;53.734;10.258;2023-04-06T09:33:03;5.47;;;3.50;;
11731;SDS011;5922;53.734;10.258;2023-04-06T09:35:32;4.43;;;3.33;;
11731;SDS011;5922;53.734;10.258;2023-04-06T09:38:20;7.93;;;3.53;;
11731;SDS011;5922;53.734;10.258;2023-04-06T09:40:55;5.43;;;3.87;;
11731;SDS011;5922;53.734;10.258;2023-04-06T09:43:24;5.30;;;3.77;;
11731;SDS011;5922;53.734;10.258;2023-04-06T10:01:46;4.80;;;3.20;;
11731;SDS011;5922;53.734;10.258;2023-04-06T10:04:20;3.90;;;2.90;;
11731;SDS011;5922;53.734;10.258;2023-04-06T10:06:53;4.57;;;3.03;;
11731;SDS011;5922;53.734;10.258;2023-04-06T10:09:22;4.17;;;3.20;;
11731;SDS011;5922;53.734;10.258;2023-04-06T10:14:18;3.37;;;2.90;;
11731;SDS011;5922;53.734;10.258;2023-04-06T10:16:48;7.90;;;3.20;;
11731;SDS011;5922;53.734;10.258;2023-04-06T10:19:17;4.97;;;3.30;;
11731;SDS011;5922;53.734;10.258;2023-04-06T10:21:45;3.40;;;3.10;;
11731;SDS011;5922;53.734;10.258;2023-04-06T10:24:14;5.40;;;3.03;;
11731;SDS011;5922;53.734;10.258;2023-04-06T10:26:58;3.97;;;3.53;;
11731;SDS011;5922;53.734;10.258;2023-04-06T10:29:26;4.23;;;3.23;;
11731;SDS011;5922;53.734;10.258;2023-04-06T10:34:39;5.23;;;3.73;;
11731;SDS011;5922;53.734;10.258;2023-04-06T10:37:13;8.53;;;4.07;;
11731;SDS011;5922;53.734;10.258;2023-04-06T10:39:47;5.47;;;4.33;;
11731;SDS011;5922;53.734;10.258;2023-04-06T10:42:14;5.17;;;4.00;;
11731;SDS011;5922;53.734;10.258;2023-04-06T10:44:42;5.90;;;3.93;;
11731;SDS011;5922;53.734;10.258;2023-04-06T10:47:15;5.80;;;4.73;;
11731;SDS011;5922;53.734;10.258;2023-04-06T10:49:45;6.53;;;4.57;;
11731;SDS011;5922;53.734;10.258;2023-04-06T10:52:12;6.60;;;4.40;;
11731;SDS011;5922;53.734;10.258;2023-04-06T10:54:41;5.37;;;4.27;;
11731;SDS011;5922;53.734;10.258;2023-04-06T10:57:09;5.03;;;4.53;;
11731;SDS011;5922;53.734;10.258;2023-04-06T10:59:36;5.03;;;4.20;;
11731;SDS011;5922;53.734;10.258;2023-04-06T11:02:04;6.00;;;4.33;;
11731;SDS011;5922;53.734;10.258;2023-04-06T11:04:53;7.10;;;4.43;;
11731;SDS011;5922;53.734;10.258;2023-04-06T11:10:22;8.90;;;4.77;;
11731;SDS011;5922;53.734;10.258;2023-04-06T11:12:52;6.00;;;4.47;;
11731;SDS011;5922;53.734;10.258;2023-04-06T11:15:20;8.57;;;4.50;;
11731;SDS011;5922;53.734;10.258;2023-04-06T11:17:47;6.23;;;4.40;;
11731;SDS011;5922;53.734;10.258;2023-04-06T11:20:15;7.93;;;4.53;;
11731;SDS011;5922;53.734;10.258;2023-04-06T11:22:48;5.47;;;4.30;;
11731;SDS011;5922;53.734;10.258;2023-04-06T11:25:16;7.13;;;4.07;;
11731;SDS011;5922;53.734;10.258;2023-04-06T11:27:51;6.10;;;4.50;;
11731;SDS011;5922;53.734;10.258;2023-04-06T11:30:19;6.77;;;4.90;;
11731;SDS011;5922;53.734;10.258;2023-04-06T11:32:46;5.87;;;4.97;;
11731;SDS011;5922;53.734;10.258;2023-04-06T11:35:19;8.70;;;5.20;;
11731;SDS011;5922;53.734;10.258;2023-04-06T11:37:48;6.87;;;4.70;;
11731;SDS011;5922;53.734;10.258;2023-04-06T11:40:15;8.07;;;5.63;;
11731;SDS011;5922;53.734;10.258;2023-04-06T11:42:52;6.53;;;5.37;;
11731;SDS011;5922;53.734;10.258;2023-04-06T11:45:20;8.90;;;5.10;;
11731;SDS011;5922;53.734;10.258;2023-04-06T11:47:54;6.90;;;4.80;;
11731;SDS011;5922;53.734;10.258;2023-04-06T11:50:22;8.43;;;6.23;;
11731;SDS011;5922;53.734;10.258;2023-04-06T11:52:57;8.00;;;6.47;;
11731;SDS011;5922;53.734;10.258;2023-04-06T11:55:26;9.40;;;6.17;;
11731;SDS011;5922;53.734;10.258;2023-04-06T11:57:55;7.90;;;6.27;;
11731;SDS011;5922;53.734;10.258;2023-04-06T12:00:23;8.13;;;6.47;;
11731;SDS011;5922;53.734;10.258;2023-04-06T12:02:55;7.47;;;5.70;;
11731;SDS011;5922;53.734;10.258;2023-04-06T12:05:27;7.40;;;6.00;;
11731;SDS011;5922;53.734;10.258;2023-04-06T12:07:55;10.70;;;6.47;;
11731;SDS011;5922;53.734;10.258;2023-04-06T12:10:22;8.67;;;7.07;;
11731;SDS011;5922;53.734;10.258;2023-04-06T12:12:50;7.40;;;6.23;;
11731;SDS011;5922;53.734;10.258;2023-04-06T12:15:18;7.30;;;6.60;;
11731;SDS011;5922;53.734;10.258;2023-04-06T12:17:46;7.87;;;6.57;;
11731;SDS011;5922;53.734;10.258;2023-04-06T12:20:13;10.57;;;7.07;;
11731;SDS011;5922;53.734;10.258;2023-04-06T12:22:55;10.90;;;6.83;;
11731;SDS011;5922;53.734;10.258;2023-04-06T12:25:22;8.50;;;6.97;;
11731;SDS011;5922;53.734;10.258;2023-04-06T12:27:49;9.63;;;7.07;;
11731;SDS011;5922;53.734;10.258;2023-04-06T12:33:24;7.60;;;6.70;;
11731;SDS011;5922;53.734;10.258;2023-04-06T12:35:51;9.33;;;7.00;;
11731;SDS011;5922;53.734;10.258;2023-04-06T12:38:19;7.73;;;6.60;;
11731;SDS011;5922;53.734;10.258;2023-04-06T12:40:49;8.50;;;7.17;;
11731;SDS011;5922;53.734;10.258;2023-04-06T12:43:16;7.40;;;6.60;;
11731;SDS011;5922;53.734;10.258;2023-04-06T12:46:22;8.77;;;6.47;;
11731;SDS011;5922;53.734;10.258;2023-04-06T12:48:37;7.73;;;6.60;;
11731;SDS011;5922;53.734;10.258;2023-04-06T12:51:05;9.77;;;6.40;;
11731;SDS011;5922;53.734;10.258;2023-04-06T12:53:33;7.70;;;6.87;;
11731;SDS011;5922;53.734;10.258;2023-04-06T12:56:01;8.17;;;6.90;;
11731;SDS011;5922;53.734;10.258;2023-04-06T12:58:28;10.10;;;6.90;;
11731;SDS011;5922;53.734;10.258;2023-04-06T13:01:05;9.23;;;7.40;;
11731;SDS011;5922;53.734;10.258;2023-04-06T13:03:32;9.40;;;6.70;;
11731;SDS011;5922;53.734;10.258;2023-04-06T13:06:02;7.90;;;6.63;;
11731;SDS011;5922;53.734;10.258;2023-04-06T13:08:29;8.13;;;6.80;;
11731;SDS011;5922;53.734;10.258;2023-04-06T13:10:56;7.87;;;6.93;;
11731;SDS011;5922;53.734;10.258;2023-04-06T13:13:24;8.73;;;6.73;;
11731;SDS011;5922;53.734;10.258;2023-04-06T13:15:59;10.47;;;7.47;;
11731;SDS011;5922;53.734;10.258;2023-04-06T13:18:27;8.07;;;6.67;;
11731;SDS011;5922;53.734;10.258;2023-04-06T13:20:55;9.07;;;6.80;;
11731;SDS011;5922;53.734;10.258;2023-04-06T13:23:23;7.50;;;6.70;;
11731;SDS011;5922;53.734;10.258;2023-04-06T13:25:56;6.97;;;6.17;;
11731;SDS011;5922;53.734;10.258;2023-04-06T13:28:24;8.40;;;6.77;;
11731;SDS011;5922;53.734;10.258;2023-04-06T13:30:51;7.73;;;6.47;;
11731;SDS011;5922;53.734;10.258;2023-04-06T13:33:18;7.70;;;6.17;;
11731;SDS011;5922;53.734;10.258;2023-04-06T13:35:46;8.80;;;6.90;;
11731;SDS011;5922;53.734;10.258;2023-04-06T13:38:14;10.30;;;7.03;;
11731;SDS011;5922;53.734;10.258;2023-04-06T13:40:45;8.43;;;6.73;;
11731;SDS011;5922;53.734;10.258;2023-04-06T13:43:12;7.53;;;6.43;;
11731;SDS011;5922;53.734;10.258;2023-04-06T13:45:48;8.10;;;6.63;;
11731;SDS011;5922;53.734;10.258;2023-04-06T13:48:16;8.07;;;7.27;;
11731;SDS011;5922;53.734;10.258;2023-04-06T13:53:27;7.77;;;6.80;;
11731;SDS011;5922;53.734;10.258;2023-04-06T13:55:56;6.70;;;5.83;;
11731;SDS011;5922;53.734;10.258;2023-04-06T13:58:24;9.07;;;6.37;;
11731;SDS011;5922;53.734;10.258;2023-04-06T14:00:51;8.50;;;6.73;;
11731;SDS011;5922;53.734;10.258;2023-04-06T14:03:26;8.53;;;7.00;;
11731;SDS011;5922;53.734;10.258;2023-04-06T14:05:53;6.47;;;5.83;;
11731;SDS011;5922;53.734;10.258;2023-04-06T14:08:23;8.13;;;6.50;;
11731;SDS011;5922;53.734;10.258;2023-04-06T14:10:50;7.53;;;6.50;;
11731;SDS011;5922;53.734;10.258;2023-04-06T14:16:04;9.60;;;6.50;;
11731;SDS011;5922;53.734;10.258;2023-04-06T14:18:36;7.30;;;6.37;;
11731;SDS011;5922;53.734;10.258;2023-04-06T14:21:15;9.13;;;6.57;;
11731;SDS011;5922;53.734;10.258;2023-04-06T14:23:45;9.00;;;6.40;;
11731;SDS011;5922;53.734;10.258;2023-04-06T14:26:23;7.67;;;6.13;;
11731;SDS011;5922;53.734;10.258;2023-04-06T14:29:01;8.37;;;6.40;;
11731;SDS011;5922;53.734;10.258;2023-04-06T14:31:49;9.73;;;7.00;;
11731;SDS011;5922;53.734;10.258;2023-04-06T14:34:31;7.37;;;6.07;;
11731;SDS011;5922;53.734;10.258;2023-04-06T14:39:58;8.70;;;6.40;;
11731;SDS011;5922;53.734;10.258;2023-04-06T14:42:36;7.73;;;6.70;;
11731;SDS011;5922;53.734;10.258;2023-04-06T14:45:07;8.17;;;6.60;;
11731;SDS011;5922;53.734;10.258;2023-04-06T14:47:48;10.33;;;6.47;;
11731;SDS011;5922;53.734;10.258;2023-04-06T14:50:18;9.33;;;6.80;;
11731;SDS011;5922;53.734;10.258;2023-04-06T14:53:00;7.23;;;6.53;;
11731;SDS011;5922;53.734;10.258;2023-04-06T14:55:54;8.60;;;6.43;;
11731;SDS011;5922;53.734;10.258;2023-04-06T14:58:22;10.67;;;7.23;;
11731;SDS011;5922;53.734;10.258;2023-04-06T15:01:04;9.73;;;6.23;;
11731;SDS011;5922;53.734;10.258;2023-04-06T15:03:34;8.33;;;6.90;;
11731;SDS011;5922;53.734;10.258;2023-04-06T15:06:01;7.63;;;6.40;;
11731;SDS011;5922;53.734;10.258;2023-04-06T15:08:43;8.67;;;6.57;;
11731;SDS011;5922;53.734;10.258;2023-04-06T15:11:13;7.90;;;6.27;;
11731;SDS011;5922;53.734;10.258;2023-04-06T15:13:46;7.20;;;6.50;;
11731;SDS011;5922;53.734;10.258;2023-04-06T15:16:24;8.93;;;7.23;;
11731;SDS011;5922;53.734;10.258;2023-04-06T15:18:52;7.67;;;6.10;;
11731;SDS011;5922;53.734;10.258;2023-04-06T15:21:20;8.50;;;6.50;;
11731;SDS011;5922;53.734;10.258;2023-04-06T15:23:49;8.23;;;7.27;;
11731;SDS011;5922;53.734;10.258;2023-04-06T15:26:17;10.83;;;6.83;;
11731;SDS011;5922;53.734;10.258;2023-04-06T15:28:45;11.73;;;7.23;;
11731;SDS011;5922;53.734;10.258;2023-04-06T15:31:13;9.27;;;7.07;;
11731;SDS011;5922;53.734;10.258;2023-04-06T15:36:24;10.33;;;6.90;;
11731;SDS011;5922;53.734;10.258;2023-04-06T15:38:54;8.47;;;6.67;;
11731;SDS011;5922;53.734;10.258;2023-04-06T15:41:22;7.10;;;6.33;;
11731;SDS011;5922;53.734;10.258;2023-04-06T15:43:58;10.73;;;6.30;;
11731;SDS011;5922;53.734;10.258;2023-04-06T15:46:33;9.40;;;6.80;;
11731;SDS011;5922;53.734;10.258;2023-04-06T15:49:08;10.53;;;8.13;;
11731;SDS011;5922;53.734;10.258;2023-04-06T15:51:40;9.63;;;7.33;;
11731;SDS011;5922;53.734;10.258;2023-04-06T15:54:11;9.93;;;7.10;;
11731;SDS011;5922;53.734;10.258;2023-04-06T15:56:38;13.20;;;6.80;;
11731;SDS011;5922;53.734;10.258;2023-04-06T15:59:10;13.10;;;6.87;;
11731;SDS011;5922;53.734;10.258;2023-04-06T16:01:38;10.67;;;7.00;;
11731;SDS011;5922;53.734;10.258;2023-04-06T16:04:19;8.83;;;6.80;;
11731;SDS011;5922;53.734;10.258;2023-04-06T16:06:58;9.00;;;6.03;;
11731;SDS011;5922;53.734;10.258;2023-04-06T16:09:26;8.43;;;6.73;;
11731;SDS011;5922;53.734;10.258;2023-04-06T16:11:53;8.30;;;6.47;;
11731;SDS011;5922;53.734;10.258;2023-04-06T16:14:36;7.60;;;6.37;;
11731;SDS011;5922;53.734;10.258;2023-04-06T16:17:12;7.53;;;6.63;;
11731;SDS011;5922;53.734;10.258;2023-04-06T16:19:44;12.80;;;7.67;;
11731;SDS011;5922;53.734;10.258;2023-04-06T16:22:44;7.40;;;6.60;;
11731;SDS011;5922;53.734;10.258;2023-04-06T16:25:28;7.60;;;6.17;;
11731;SDS011;5922;53.734;10.258;2023-04-06T16:28:15;8.93;;;6.33;;
11731;SDS011;5922;53.734;10.258;2023-04-06T16:31:02;8.03;;;6.47;;
11731;SDS011;5922;53.734;10.258;2023-04-06T16:33:55;7.80;;;6.40;;
11731;SDS011;5922;53.734;10.258;2023-04-06T16:36:36;9.53;;;6.63;;
11731;SDS011;5922;53.734;10.258;2023-04-06T16:39:26;7.40;;;5.80;;
11731;SDS011;5922;53.734;10.258;2023-04-06T16:42:10;9.00;;;6.67;;
11731;SDS011;5922;53.734;10.258;2023-04-06T16:47:35;9.00;;;6.20;;
11731;SDS011;5922;53.734;10.258;2023-04-06T16:50:22;8.67;;;5.87;;
11731;SDS011;5922;53.734;10.258;2023-04-06T16:53:04;8.97;;;7.10;;
11731;SDS011;5922;53.734;10.258;2023-04-06T16:55:46;10.00;;;7.00;;
11731;SDS011;5922;53.734;10.258;2023-04-06T16:58:35;9.37;;;6.80;;
11731;SDS011;5922;53.734;10.258;2023-04-06T17:01:20;8.73;;;7.00;;
11731;SDS011;5922;53.734;10.258;2023-04-06T17:03:49;18.13;;;8.83;;
11731;SDS011;5922;53.734;10.258;2023-04-06T17:06:27;12.33;;;8.93;;
11731;SDS011;5922;53.734;10.258;2023-04-06T17:08:55;11.00;;;7.60;;
11731;SDS011;5922;53.734;10.258;2023-04-06T17:11:25;8.47;;;6.90;;